createdAt,value
2022-11-05T00:01:07.678Z,98283.09
2022-11-05T00:03:53.797Z,98284.16
2022-11-05T00:06:39.730Z,98285.00
2022-11-05T00:09:29.826Z,98289.09
2022-11-05T00:12:24.303Z,98287.44
2022-11-05T00:15:10.399Z,98289.06
2022-11-05T00:17:38.233Z,98288.75
2022-11-05T00:20:07.226Z,98293.94
2022-11-05T00:22:59.348Z,98289.81
2022-11-05T00:25:28.065Z,98287.91
2022-11-05T00:28:01.219Z,98281.59
2022-11-05T00:30:29.786Z,98288.47
2022-11-05T00:33:04.999Z,98296.97
2022-11-05T00:35:32.467Z,98291.50
2022-11-05T00:37:59.988Z,98298.09
2022-11-05T00:40:27.406Z,98305.19
2022-11-05T00:43:13.745Z,98310.38
2022-11-05T00:45:41.278Z,98306.28
2022-11-05T00:48:27.598Z,98298.63
2022-11-05T00:50:55.343Z,98305.75
2022-11-05T00:53:22.820Z,98307.66
2022-11-05T00:55:50.348Z,98311.75
2022-11-05T00:58:20.824Z,98305.19
2022-11-05T01:00:54.474Z,98306.28
2022-11-05T01:03:32.502Z,98304.63
2022-11-05T01:06:10.259Z,98305.75
2022-11-05T01:08:38.209Z,98309.25
2022-11-05T01:11:33.429Z,98318.00
2022-11-05T01:14:13.433Z,98300.78
2022-11-05T01:16:41.879Z,98310.63
2022-11-05T01:19:12.918Z,98308.97
2022-11-05T01:21:40.421Z,98323.50
2022-11-05T01:24:08.540Z,98310.88
2022-11-05T01:26:36.179Z,98318.81
2022-11-05T01:29:03.788Z,98313.34
2022-11-05T01:31:31.274Z,98315.00
2022-11-05T01:34:02.879Z,98323.47
2022-11-05T01:36:32.934Z,98327.03
2022-11-05T01:39:02.148Z,98317.75
2022-11-05T01:41:29.591Z,98317.16
2022-11-05T01:44:02.035Z,98324.88
2022-11-05T01:46:40.718Z,98328.72
2022-11-05T01:49:25.459Z,98332.78
2022-11-05T01:51:53.351Z,98339.91
2022-11-05T01:54:27.749Z,98348.94
2022-11-05T01:57:04.295Z,98356.06
2022-11-05T01:59:39.901Z,98347.03
2022-11-05T02:02:08.964Z,98344.28
2022-11-05T02:04:54.742Z,98352.50
2022-11-05T02:07:24.589Z,98344.53
2022-11-05T02:10:11.082Z,98362.63
2022-11-05T02:12:42.288Z,98359.88
2022-11-05T02:16:06.794Z,98358.22
2022-11-05T02:19:24.510Z,98375.19
2022-11-05T02:22:35.065Z,98380.41
2022-11-05T02:25:13.200Z,98363.13
2022-11-05T02:28:21.825Z,98363.44
2022-11-05T02:31:26.226Z,98347.84
2022-11-05T02:34:20.806Z,98358.78
2022-11-05T02:37:07.444Z,98344.28
2022-11-05T02:40:22.515Z,98358.22
2022-11-05T02:43:15.515Z,98354.34
2022-11-05T02:46:21.481Z,98359.03
2022-11-05T02:49:17.443Z,98349.41
2022-11-05T02:51:59.536Z,98343.97
2022-11-05T02:54:58.644Z,98351.66
2022-11-05T02:57:30.846Z,98345.91
2022-11-05T03:00:08.785Z,98344.78
2022-11-05T03:02:36.637Z,98355.72
2022-11-05T03:05:05.186Z,98346.44
2022-11-05T03:07:55.360Z,98354.66
2022-11-05T03:10:47.357Z,98376.25
2022-11-05T03:13:39.882Z,98371.88
2022-11-05T03:16:22.099Z,98373.78
2022-11-05T03:19:42.241Z,98363.94
2022-11-05T03:22:20.726Z,98368.31
2022-11-05T03:24:57.694Z,98366.66
2022-11-05T03:27:31.886Z,98366.41
2022-11-05T03:30:08.575Z,98379.28
2022-11-05T03:32:42.332Z,98365.56
2022-11-05T03:35:21.135Z,98376.25
2022-11-05T03:37:53.035Z,98375.69
2022-11-05T03:40:23.624Z,98381.16
2022-11-05T03:42:58.402Z,98376.50
2022-11-05T03:45:57.832Z,98371.88
2022-11-05T03:48:29.322Z,98378.41
2022-11-05T03:51:30.908Z,98385.00
2022-11-05T03:54:03.770Z,98383.34
2022-11-05T03:56:39.494Z,98387.75
2022-11-05T03:59:10.261Z,98382.50
2022-11-05T04:01:39.482Z,98386.59
2022-11-05T04:04:07.866Z,98383.03
2022-11-05T04:06:53.939Z,98387.38
2022-11-05T04:09:40.213Z,98377.78
2022-11-05T04:12:27.422Z,98380.75
2022-11-05T04:14:54.908Z,98383.41
2022-11-05T04:17:22.449Z,98380.16
2022-11-05T04:20:08.337Z,98383.47
2022-11-05T04:22:55.311Z,98385.56
2022-11-05T04:25:23.770Z,98376.31
2022-11-05T04:27:51.343Z,98388.34
2022-11-05T04:30:20.512Z,98389.75
2022-11-05T04:33:09.609Z,98396.59
2022-11-05T04:35:46.541Z,98401.78
2022-11-05T04:38:18.306Z,98392.19
2022-11-05T04:40:46.806Z,98400.69
2022-11-05T04:43:17.420Z,98390.59
2022-11-05T04:45:46.021Z,98389.22
2022-11-05T04:48:13.803Z,98386.97
2022-11-05T04:50:41.369Z,98395.91
2022-11-05T04:53:09.216Z,98397.97
2022-11-05T04:55:36.970Z,98399.09
2022-11-05T04:58:04.884Z,98405.91
2022-11-05T05:00:32.647Z,98410.28
2022-11-05T05:03:00.660Z,98404.31
2022-11-05T05:05:28.203Z,98408.94
2022-11-05T05:07:55.717Z,98421.19
2022-11-05T05:10:23.223Z,98418.69
2022-11-05T05:12:50.704Z,98422.03
2022-11-05T05:15:18.373Z,98422.13
2022-11-05T05:17:53.314Z,98432.19
2022-11-05T05:20:39.478Z,98429.47
2022-11-05T05:23:06.961Z,98425.69
2022-11-05T05:25:34.543Z,98431.16
2022-11-05T05:28:02.047Z,98425.28
2022-11-05T05:30:29.522Z,98428.31
2022-11-05T05:32:57.048Z,98426.06
2022-11-05T05:35:24.486Z,98424.69
2022-11-05T05:37:56.844Z,98436.00
2022-11-05T05:40:25.257Z,98448.28
2022-11-05T05:42:56.268Z,98438.78
2022-11-05T05:45:23.776Z,98454.41
2022-11-05T05:47:51.221Z,98446.50
2022-11-05T05:50:18.663Z,98448.94
2022-11-05T05:52:46.265Z,98460.94
2022-11-05T05:55:13.849Z,98465.56
2022-11-05T05:57:41.337Z,98466.63
2022-11-05T06:00:09.825Z,98474.97
2022-11-05T06:02:37.351Z,98471.78
2022-11-05T06:05:05.310Z,98479.97
2022-11-05T06:07:36.979Z,98477.78
2022-11-05T06:10:06.359Z,98487.34
2022-11-05T06:12:34.144Z,98483.78
2022-11-05T06:15:01.724Z,98481.06
2022-11-05T06:17:29.134Z,98480.56
2022-11-05T06:19:56.844Z,98485.50
2022-11-05T06:22:25.132Z,98484.44
2022-11-05T06:24:57.735Z,98486.66
2022-11-05T06:30:27.783Z,98504.16
2022-11-05T06:32:55.986Z,98518.06
2022-11-05T06:35:23.527Z,98510.41
2022-11-05T06:37:51.511Z,98529.00
2022-11-05T06:40:19.196Z,98541.63
2022-11-05T06:43:30.848Z,98535.88
2022-11-05T06:46:03.280Z,98542.41
2022-11-05T06:48:30.844Z,98541.56
2022-11-05T06:50:58.965Z,98542.03
2022-11-05T06:53:26.668Z,98542.38
2022-11-05T06:55:55.363Z,98549.28
2022-11-05T06:58:26.933Z,98557.22
2022-11-05T07:00:54.767Z,98568.22
2022-11-05T07:03:22.812Z,98563.59
2022-11-05T07:05:51.084Z,98572.09
2022-11-05T07:08:22.482Z,98573.19
2022-11-05T07:13:34.754Z,98574.59
2022-11-05T07:16:02.289Z,98578.47
2022-11-05T07:18:30.110Z,98573.75
2022-11-05T07:21:00.578Z,98563.59
2022-11-05T07:23:28.927Z,98577.47
2022-11-05T07:25:57.130Z,98581.28
2022-11-05T07:28:24.857Z,98574.44
2022-11-05T07:30:53.716Z,98572.22
2022-11-05T07:33:21.455Z,98580.66
2022-11-05T07:35:49.005Z,98583.06
2022-11-05T07:38:18.395Z,98587.53
2022-11-05T07:40:45.803Z,98584.78
2022-11-05T07:43:13.477Z,98584.84
2022-11-05T07:45:41.384Z,98574.28
2022-11-05T07:48:09.742Z,98570.25
2022-11-05T07:50:38.446Z,98565.19
2022-11-05T08:02:14.091Z,98571.47
2022-11-05T08:04:45.487Z,98569.81
2022-11-05T08:07:13.880Z,98576.34
2022-11-05T08:09:42.293Z,98571.47
2022-11-05T08:12:14.329Z,98570.28
2022-11-05T08:17:48.845Z,98573.88
2022-11-05T15:51:16.957Z,98882.00
2022-11-05T16:11:43.956Z,98899.94
2022-11-05T16:14:49.679Z,98915.19
